Dange, Nigeria
Current Conditions -  °F | °C
As of 8:00 PM on Tuesday 21 Oct 2014 (Local Time) from DRRN Reporting Station
Clear Clear  
Wind Chill: 91°   Ceiling: Unl
Heat Index: 91°   Visibility: 4mi
Dew Point: 32°   Wind: 7mph
Humidity: 12%   Direction: 40°NE
Pressure: 29.85"   Gusts: NA
Location:  12.84°N, 5.35°E
Report Text: DRRN 211900Z 04006KT 6000 NSC 33/M00 Q1011 TEMPO 4000 DU
Loading
Personal Weather Stations






























Interactive Weather Map
Tropical Storm Tracking
New forecast layout! Learn more

10-Day Weather Forecast

Advertisements
Track Severe Weather on mobile